Time;durP1;ratioP1;P1;durP2;ratioP2;P2;SDS_P1;SDS_P2;PMS_P1;PMS_P2;Temp;Humidity;BMP_temperature;BMP_pressure;BME280_temperature;BME280_humidity;BME280_pressure;Samples;Min_cycle;Max_cycle;Signal;HPM_P1;HPM_P2
2022/08/31 00:06:29;;;;;;;;;;;;;;;30.31;68.15;100832.84;5060263;28;70884;-32
2022/08/31 00:09:01;;;;;;;;;;;;;;;30.27;73.25;100838.69;5053139;28;67105;-32
2022/08/31 00:11:34;;;;;;;;;;;;;;;30.25;73.63;100843.47;5060770;28;70223;-31
2022/08/31 00:14:08;;;;;;;;;;;;;;;30.20;73.95;100847.84;5061652;28;66498;-31
2022/08/31 00:16:43;;;;;;;;;;;;;;;30.14;74.76;100854.97;5051333;28;70727;-32
2022/08/31 00:19:15;;;;;;;;;;;;;;;30.12;74.84;100843.53;5061369;28;66224;-32
2022/08/31 00:21:47;;;;;;;;;;;;;;;30.13;75.43;100847.06;5060486;28;70115;-32
2022/08/31 00:24:19;;;;;;;;;;;;;;;30.09;75.64;100854.81;5059340;28;66178;-31
2022/08/31 00:26:51;;;;;;;;;;;;;;;29.94;75.17;100857.75;5060358;28;70351;-31
2022/08/31 00:29:23;;;;;;;;;;;;;;;29.97;76.00;100849.22;5065388;28;67208;-32
2022/08/31 00:31:55;;;;;;;;;;;;;;;29.97;76.41;100859.22;5067526;28;70583;-32
2022/08/31 00:34:27;;;;;;;;;;;;;;;30.00;76.15;100864.19;5057362;28;66824;-32
2022/08/31 00:37:00;;;;;;;;;;;;;;;29.85;73.88;100867.16;5057913;28;69853;-30
2022/08/31 00:39:33;;;;;;;;;;;;;;;29.78;74.18;100872.63;5070872;28;66470;-31
2022/08/31 00:42:05;;;;;;;;;;;;;;;29.83;75.33;100875.47;5060032;28;70293;-32
2022/08/31 00:44:38;;;;;;;;;;;;;;;29.89;75.61;100878.38;5058661;28;67608;-33
2022/08/31 00:47:10;;;;;;;;;;;;;;;29.92;75.07;100884.22;5060087;28;70553;-32
2022/08/31 00:49:46;;;;;;;;;;;;;;;29.96;74.96;100884.59;5065451;28;66241;-32
2022/08/31 00:52:23;;;;;;;;;;;;;;;29.97;74.83;100872.72;5066201;28;70421;-34
2022/08/31 00:54:59;;;;;;;;;;;;;;;29.74;75.17;100844.31;5065854;28;67114;-32
2022/08/31 00:57:33;;;;;;;;;;;;;;;30.00;75.03;100878.53;5064124;28;70132;-33
2022/08/31 01:00:08;;;;;;;;;;;;;;;30.03;74.94;100875.44;5062184;28;67284;-32
2022/08/31 05:39:39;;;;;;;10.27;9.52;;;;;;;30.98;65.78;100557.75;5127127;27;44600;-29
2022/08/31 05:42:14;;;;;;;10.23;9.55;;;;;;;30.91;64.85;100546.16;5117423;27;70739;-27
2022/08/31 05:44:47;;;;;;;9.98;9.23;;;;;;;30.97;63.87;100549.84;5111169;27;66849;-28
2022/08/31 05:47:19;;;;;;;10.05;8.98;;;;;;;30.96;62.80;100554.44;5103421;27;70618;-29
2022/08/31 05:49:52;;;;;;;9.23;8.32;;;;;;;30.95;60.93;100541.94;5110913;27;67301;-28
2022/08/31 05:52:25;;;;;;;9.25;8.38;;;;;;;30.96;60.80;100538.19;5096495;27;70467;-28
2022/08/31 05:54:58;;;;;;;8.73;7.93;;;;;;;30.96;59.95;100538.19;5118580;27;66899;-29
2022/08/31 05:57:31;;;;;;;8.35;7.75;;;;;;;30.95;59.50;100536.53;5108676;27;70315;-28
2022/08/31 06:00:04;;;;;;;8.63;7.88;;;;;;;30.94;58.29;100534.88;5109499;27;66442;-29
2022/08/31 06:02:41;;;;;;;8.70;8.05;;;;;;;30.76;57.79;100510.50;5113207;27;70843;-29
2022/08/31 06:05:16;;;;;;;6.93;6.53;;;;;;;30.92;57.12;100523.44;5110226;27;67065;-30
2022/08/31 06:07:50;;;;;;;8.13;7.40;;;;;;;30.92;56.97;100512.59;5102804;27;70281;-30
2022/08/31 06:10:24;;;;;;;8.15;7.55;;;;;;;30.90;56.51;100520.16;5105484;27;66227;-27
2022/08/31 06:12:56;;;;;;;10.60;8.40;;;;;;;30.89;56.26;100511.19;5107680;27;69717;-30
2022/08/31 06:15:28;;;;;;;7.95;7.38;;;;;;;30.93;56.19;100514.28;5093439;27;66545;-28
2022/08/31 06:18:03;;;;;;;8.52;7.60;;;;;;;30.87;55.41;100515.16;5112723;27;69761;-28
2022/08/31 06:20:36;;;;;;;8.52;7.93;;;;;;;30.85;55.19;100520.00;5104392;27;66943;-28
2022/08/31 06:23:09;;;;;;;8.27;7.50;;;;;;;30.83;55.09;100511.28;5101329;27;70973;-28
2022/08/31 06:25:49;;;;;;;8.52;7.82;;;;;;;30.81;55.24;100516.91;5105675;27;67003;-30
2022/08/31 06:28:22;;;;;;;7.75;7.03;;;;;;;30.80;55.49;100511.75;5103788;27;70780;-27
2022/08/31 06:30:54;;;;;;;7.30;6.70;;;;;;;30.75;55.61;100498.84;5091766;27;67236;-27
2022/08/31 06:33:28;;;;;;;7.80;7.28;;;;;;;30.77;56.69;100488.63;5089808;27;70337;-26
2022/08/31 06:36:14;;;;;;;13.80;6.82;;;;;;;30.76;56.64;100495.09;5087717;27;67340;-30
2022/08/31 06:39:03;;;;;;;10.30;7.47;;;;;;;30.37;56.26;100426.03;5080309;27;69921;-27
2022/08/31 06:41:51;;;;;;;7.22;6.57;;;;;;;30.65;55.88;100472.34;5074637;28;66333;-31
2022/08/31 06:44:41;;;;;;;7.50;6.82;;;;;;;30.70;55.23;100479.75;5069778;27;70581;-28
2022/08/31 06:47:20;;;;;;;8.32;6.88;;;;;;;30.66;54.65;100471.25;5076505;27;66851;-28
2022/08/31 06:49:56;;;;;;;13.63;6.60;;;;;;;30.67;54.85;100458.53;5069044;28;72024;-27
2022/08/31 06:52:29;;;;;;;6.03;5.45;;;;;;;30.66;54.64;100455.03;5068479;28;66861;-28
2022/08/31 06:55:24;;;;;;;6.93;6.15;;;;;;;30.49;54.25;100421.53;5073976;27;70582;-26
2022/08/31 06:58:14;;;;;;;16.25;5.85;;;;;;;30.62;54.37;100445.72;5074106;28;67010;-27
2022/08/31 07:01:21;;;;;;;6.88;6.20;;;;;;;30.49;53.59;100429.66;5073445;27;70147;-26
2022/08/31 07:04:26;;;;;;;8.27;6.20;;;;;;;30.60;53.16;100433.47;5071788;27;65445;-28
2022/08/31 07:06:59;;;;;;;9.55;5.65;;;;;;;30.58;52.78;100436.38;5077707;28;70723;-27
2022/08/31 07:09:31;;;;;;;11.88;5.40;;;;;;;30.56;52.97;100438.50;5076097;28;66905;-28
2022/08/31 07:12:04;;;;;;;5.70;5.07;;;;;;;30.54;52.78;100440.63;5078035;28;70628;-27
2022/08/31 07:14:37;;;;;;;14.05;6.03;;;;;;;30.57;52.57;100440.16;5081226;27;65943;-28
2022/08/31 07:17:09;;;;;;;5.50;5.10;;;;;;;30.59;52.30;100429.09;5077194;27;70251;-29
2022/08/31 07:19:42;;;;;;;8.55;4.93;;;;;;;30.60;52.03;100426.16;5074008;28;66647;-28
2022/08/31 07:22:15;;;;;;;6.20;5.60;;;;;;;30.56;51.64;100419.53;5077447;27;71136;-28
2022/08/31 07:24:52;;;;;;;4.93;4.57;;;;;;;30.57;51.88;100423.91;5074911;27;66657;-29
2022/08/31 07:27:24;;;;;;;5.28;4.85;;;;;;;30.56;51.14;100407.91;5096663;27;69551;-28
2022/08/31 07:29:59;;;;;;;6.30;4.75;;;;;;;30.54;51.28;100400.03;5073023;28;66329;-27
2022/08/31 07:32:37;;;;;;;5.13;4.63;;;;;;;30.49;51.29;100375.53;5093852;27;69689;-27
2022/08/31 07:35:09;;;;;;;4.95;4.55;;;;;;;30.55;50.77;100385.41;5079201;27;67034;-29
2022/08/31 07:43:25;;;;;;;7.55;6.20;;;;;;;30.88;63.79;100362.47;5074516;28;70907;-29
2022/08/31 07:45:57;;;;;;;14.85;7.35;;;;;;;30.96;64.65;100348.59;5074446;28;66718;-27
2022/08/31 07:48:31;;;;;;;10.55;8.20;;;;;;;30.97;65.17;100344.81;5070818;28;70947;-28
2022/08/31 07:51:33;;;;;;;12.27;7.80;;;;;;;31.12;66.04;100353.31;5041702;27;66444;-27
2022/08/31 07:54:26;;;;;;;11.32;8.43;;;;;;;31.04;66.40;100312.22;5074359;28;70667;-26
2022/08/31 07:57:08;;;;;;;18.25;8.70;;;;;;;31.30;66.94;100348.84;5079363;28;67067;-27
2022/08/31 07:59:41;;;;;;;17.45;8.05;;;;;;;31.40;67.12;100349.13;5076954;28;70935;-26
2022/08/31 08:02:15;;;;;;;17.45;8.05;;;;;;;31.09;67.41;100283.38;5079633;27;66743;-27
2022/08/31 08:04:49;;;;;;;14.93;8.55;;;;;;;31.56;66.94;100348.38;5071627;28;71994;-26
2022/08/31 08:07:41;;;;;;;25.17;8.75;;;;;;;31.54;67.95;100338.84;5076887;28;66765;-27
2022/08/31 08:10:56;;;;;;;21.15;8.73;;;;;;;31.71;68.15;100355.22;5068931;27;70738;-28
2022/08/31 08:13:43;;;;;;;21.55;9.63;;;;;;;31.72;67.72;100340.59;5077734;27;66675;-26
2022/08/31 08:16:41;;;;;;;39.75;13.57;;;;;;;31.84;68.26;100346.78;5076713;28;71514;-34
2022/08/31 08:19:32;;;;;;;35.33;12.02;;;;;;;31.75;68.64;100330.06;5077386;27;66661;-31
2022/08/31 08:22:05;;;;;;;21.63;10.98;;;;;;;31.85;69.16;100345.75;5091095;27;71211;-27
2022/08/31 08:25:03;;;;;;;30.65;10.75;;;;;;;31.90;69.77;100351.28;5072839;28;65948;-26
2022/08/31 08:27:46;;;;;;;34.28;10.13;;;;;;;31.92;69.24;100351.88;5076566;27;70472;-27
2022/08/31 08:30:53;;;;;;;25.90;10.60;;;;;;;31.09;69.56;100207.50;5070321;27;67011;-28
2022/08/31 08:33:30;;;;;;;25.35;9.82;;;;;;;31.91;69.99;100322.25;5090778;27;70347;-27
2022/08/31 08:36:06;;;;;;;22.60;9.07;;;;;;;31.96;69.56;100320.50;5090833;27;66631;-29
2022/08/31 08:38:45;;;;;;;18.23;10.02;;;;;;;31.93;70.44;100314.72;5077118;27;69702;-27
2022/08/31 08:41:22;;;;;;;25.30;9.20;;;;;;;31.97;70.27;100321.31;5071275;28;65744;-28
2022/08/31 08:43:59;;;;;;;18.33;9.30;;;;;;;31.50;70.36;100246.31;5091442;27;70088;-26
2022/08/31 08:46:38;;;;;;;20.80;9.25;;;;;;;31.62;70.19;100262.56;5077458;28;65675;-26
2022/08/31 08:49:18;;;;;;;19.27;9.63;;;;;;;31.58;70.35;100248.66;5077741;28;70466;-26
2022/08/31 08:52:02;;;;;;;29.23;9.80;;;;;;;31.39;70.31;100211.94;5074619;28;66749;-26
2022/08/31 08:54:37;;;;;;;;;;;;;;;31.65;71.49;100296.50;5072953;28;71369;-27
2022/08/31 08:57:34;;;;;;;17.77;9.63;;;;;;;31.80;70.24;100292.22;5075928;28;67183;-28
2022/08/31 09:00:11;;;;;;;35.10;9.88;;;;;;;31.96;70.11;100306.94;5072038;28;70549;-27
2022/08/31 09:02:57;;;;;;;15.57;9.43;;;;;;;31.58;70.28;100256.78;5077278;28;66583;-29
2022/08/31 09:06:13;;;;;;;25.02;12.50;;;;;;;31.87;70.26;100321.06;5072778;27;71166;-27
2022/08/31 09:08:53;;;;;;;17.30;11.38;;;;;;;31.99;70.87;100340.91;5060724;28;66910;-27
2022/08/31 09:11:57;;;;;;;21.50;12.02;;;;;;;31.40;71.79;100256.97;5077478;27;70159;-33
2022/08/31 09:15:06;;;;;;;19.10;12.32;;;;;;;31.90;71.78;100339.59;5075696;28;67227;-28
2022/08/31 09:17:48;;;;;;;16.00;11.30;;;;;;;31.94;71.96;100366.03;5078057;27;71042;-28
2022/08/31 09:20:22;;;;;;;17.47;10.97;;;;;;;31.96;72.06;100380.19;5071170;27;66344;-27
2022/08/31 09:22:57;;;;;;;12.20;10.52;;;;;;;31.98;72.23;100409.78;5071645;28;71206;-27
2022/08/31 09:25:34;;;;;;;13.65;10.15;;;;;;;31.96;72.30;100385.63;5067109;28;66366;-28
2022/08/31 09:28:47;;;;;;;13.25;10.55;;;;;;;31.40;73.22;100316.59;5033050;28;70739;-26
2022/08/31 09:31:45;;;;;;;13.73;10.48;;;;;;;31.69;73.41;100382.56;5079669;27;66938;-30
2022/08/31 09:34:31;;;;;;;14.15;10.25;;;;;;;31.46;73.27;100312.94;5072435;28;70929;-29
2022/08/31 09:37:23;;;;;;;15.93;9.90;;;;;;;31.35;73.88;100294.78;5079937;27;66133;-30
2022/08/31 09:39:55;;;;;;;12.35;9.70;;;;;;;31.86;74.24;100358.22;5078252;27;70651;-26
2022/08/31 09:42:29;;;;;;;10.57;9.40;;;;;;;31.87;74.38;100354.44;5079305;27;66575;-27
2022/08/31 09:45:10;;;;;;;12.40;9.88;;;;;;;31.03;74.51;100213.84;5078528;28;70684;-30
2022/08/31 09:47:51;;;;;;;12.40;9.52;;;;;;;31.44;75.40;100290.66;5077063;28;66580;-29
2022/08/31 09:50:45;;;;;;;12.57;9.38;;;;;;;31.77;75.03;100349.66;5065391;28;70710;-26
2022/08/31 09:56:18;;;;;;;10.15;9.15;;;;;;;31.31;75.12;100261.06;5076554;27;70856;-27
2022/08/31 09:59:00;;;;;;;10.43;8.77;;;;;;;31.71;75.30;100333.53;5074341;27;66988;-26
2022/08/31 10:01:44;;;;;;;10.63;9.10;;;;;;;31.75;75.83;100364.50;5070135;27;71018;-26
2022/08/31 10:04:28;;;;;;;12.63;9.55;;;;;;;31.35;76.02;100292.06;5077617;27;66547;-28
2022/08/31 10:07:23;;;;;;;9.85;9.07;;;;;;;31.79;76.19;100362.97;5071258;28;71110;-27
2022/08/31 10:10:10;;;;;;;10.77;8.82;;;;;;;31.80;76.44;100368.16;5074294;28;66416;-28
2022/08/31 10:13:33;;;;;;;10.45;9.60;;;;;;;31.77;76.44;100375.94;5077225;27;70873;-26
2022/08/31 10:16:35;;;;;;;10.25;9.35;;;;;;;31.64;76.46;100384.34;5082950;28;66120;-27
2022/08/31 10:19:13;;;;;;;11.23;9.07;;;;;;;31.79;77.53;100384.69;5077669;27;70096;-26
2022/08/31 10:22:02;;;;;;;10.23;9.20;;;;;;;31.74;77.92;100387.28;5080439;28;67192;-27
2022/08/31 10:24:45;;;;;;;9.90;8.90;;;;;;;31.37;77.92;100325.19;5079840;28;70250;-27
2022/08/31 10:27:28;;;;;;;12.90;10.00;;;;;;;31.32;77.85;100304.19;5079636;28;66448;-27
2022/08/31 10:30:03;;;;;;;11.25;10.30;;;;;;;31.77;78.52;100371.34;5078396;27;70868;-26
2022/08/31 10:32:59;;;;;;;11.38;10.23;;;;;;;31.00;78.79;100249.53;5080013;28;67387;-26
2022/08/31 10:35:51;;;;;;;12.07;11.02;;;;;;;31.79;79.16;100403.66;5080383;28;70143;-25
2022/08/31 10:38:39;;;;;;;12.50;11.27;;;;;;;31.19;79.10;100314.44;5094431;27;66137;-26
2022/08/31 10:41:22;;;;;;;12.10;11.20;;;;;;;31.82;79.08;100403.19;5079313;28;70397;-29
2022/08/31 10:44:25;;;;;;;13.13;11.93;;;;;;;31.30;79.57;100338.81;5081399;28;67013;-27
2022/08/31 10:47:01;;;;;;;12.65;11.50;;;;;;;31.83;79.03;100418.38;5078777;28;70785;-28
2022/08/31 10:49:34;;;;;;;16.23;11.75;;;;;;;31.56;78.88;100380.91;5074771;28;66577;-26
2022/08/31 10:52:28;;;;;;;13.57;12.23;;;;;;;31.56;78.91;100393.63;5080933;27;70895;-27
2022/08/31 10:55:45;;;;;;;13.48;12.23;;;;;;;31.72;79.45;100421.94;5079395;27;66469;-29
2022/08/31 10:58:48;;;;;;;12.68;11.73;;;;;;;31.81;78.97;100423.22;5078210;28;72246;-31
2022/08/31 11:01:42;;;;;;;20.08;12.38;;;;;;;31.31;79.33;100340.47;5053843;28;66830;-27
2022/08/31 11:04:38;;;;;;;14.60;12.40;;;;;;;31.71;79.15;100404.03;5082424;28;70897;-26
2022/08/31 11:07:13;;;;;;;13.80;12.52;;;;;;;31.85;79.32;100434.44;5075584;27;67248;-29
2022/08/31 11:10:09;;;;;;;13.23;12.18;;;;;;;31.44;79.19;100373.84;5075992;27;70169;-29
2022/08/31 11:12:48;;;;;;;14.60;13.25;;;;;;;31.73;79.16;100437.13;5072025;27;66961;-30
2022/08/31 11:15:37;;;;;;;13.65;12.20;;;;;;;31.00;79.48;100328.09;5076331;28;70116;-29
2022/08/31 11:18:42;;;;;;;13.68;12.38;;;;;;;31.78;79.57;100480.63;5082338;27;66933;-25
2022/08/31 11:22:13;;;;;;;13.70;12.52;;;;;;;31.72;79.57;100489.72;5073562;28;70892;-28
2022/08/31 11:25:02;;;;;;;14.32;12.95;;;;;;;31.81;79.15;100501.88;5019130;28;67259;-29
2022/08/31 11:27:38;;;;;;;16.05;14.52;;;;;;;31.78;79.52;100502.34;5068093;28;70608;-27
2022/08/31 11:30:25;;;;;;;16.75;15.30;;;;;;;31.77;78.97;100511.53;5071477;28;67158;-28
2022/08/31 11:32:59;;;;;;;20.67;16.90;;;;;;;31.78;79.21;100502.34;5073265;27;69783;-28
2022/08/31 11:36:07;;;;;;;23.38;17.25;;;;;;;31.66;79.35;100520.50;5073481;28;66976;-27
2022/08/31 11:39:02;;;;;;;18.60;15.70;;;;;;;31.77;79.21;100528.63;5077781;28;71161;-27
2022/08/31 11:41:46;;;;;;;19.27;16.85;;;;;;;31.75;78.99;100529.94;5066114;27;66034;-28
2022/08/31 11:44:38;;;;;;;19.33;16.10;;;;;;;31.70;78.89;100533.34;5068312;27;70457;-27
2022/08/31 11:47:15;;;;;;;20.90;15.53;;;;;;;31.58;78.98;100519.78;5073741;28;66211;-27
2022/08/31 11:49:50;;;;;;;17.55;15.20;;;;;;;31.74;79.09;100558.13;5069470;28;70149;-28
2022/08/31 11:52:28;;;;;;;17.27;15.30;;;;;;;31.73;78.85;100556.44;5072914;28;66237;-27
2022/08/31 11:55:16;;;;;;;15.68;14.20;;;;;;;31.64;78.91;100560.56;5063231;28;71315;-27
2022/08/31 11:58:06;;;;;;;16.80;14.85;;;;;;;31.68;79.01;100568.00;5072109;27;66928;-28
2022/08/31 12:01:01;;;;;;;15.65;14.18;;;;;;;31.70;78.76;100570.47;5066979;28;70940;-27
2022/08/31 12:03:44;;;;;;;14.65;13.38;;;;;;;30.84;76.72;100450.63;5079445;27;66329;-28
2022/08/31 12:06:32;;;;;;;13.77;12.52;;;;;;;31.52;74.46;100574.09;5076275;28;70630;-30
2022/08/31 12:09:39;;;;;;;13.63;12.43;;;;;;;31.44;73.99;100577.16;5078837;27;65999;-28
2022/08/31 12:12:43;;;;;;;18.55;12.93;;;;;;;31.16;72.21;100565.00;5077237;28;70606;-28
2022/08/31 12:15:27;;;;;;;13.43;12.15;;;;;;;31.32;71.71;100580.63;5034113;27;66034;-30
2022/08/31 12:18:03;;;;;;;12.50;11.27;;;;;;;31.30;70.87;100588.16;5078369;27;70923;-28
2022/08/31 12:24:21;;;;;;;12.00;10.77;;;;;;;30.96;69.42;100597.78;5076457;27;70699;-32
2022/08/31 12:27:18;;;;;;;11.13;10.15;;;;;;;31.00;68.42;100626.06;5046936;27;66947;-28
2022/08/31 12:30:10;;;;;;;11.55;10.57;;;;;;;31.03;67.94;100641.03;5076855;28;70895;-29
2022/08/31 12:32:45;;;;;;;15.25;10.02;;;;;;;30.76;67.29;100624.22;5078423;28;66699;-29
2022/08/31 12:35:23;;;;;;;30.38;10.10;;;;;;;30.98;67.03;100649.00;5075662;27;69973;-28
2022/08/31 12:38:05;;;;;;;23.20;9.95;;;;;;;30.90;66.88;100642.84;5077089;27;66993;-32
2022/08/31 12:40:53;;;;;;;21.42;9.80;;;;;;;30.50;67.20;100580.16;5074807;28;69998;-30
2022/08/31 12:43:49;;;;;;;14.00;9.30;;;;;;;30.92;66.57;100634.47;5077492;28;67217;-29
2022/08/31 12:46:21;;;;;;;13.65;9.05;;;;;;;30.89;66.45;100651.19;5075684;28;71081;-31
2022/08/31 12:49:15;;;;;;;16.77;9.25;;;;;;;30.40;65.60;100586.09;5077727;28;67132;-28
2022/08/31 12:52:04;;;;;;;11.85;9.27;;;;;;;30.86;65.73;100667.91;5078994;28;70720;-29
2022/08/31 12:55:04;;;;;;;9.80;8.85;;;;;;;30.28;65.11;100606.81;5074104;28;66882;-29
2022/08/31 12:57:57;;;;;;;10.40;8.25;;;;;;;30.79;64.88;100695.03;5074583;28;70675;-31
2022/08/31 13:00:38;;;;;;;30.13;8.80;;;;;;;30.37;64.49;100646.09;5074021;28;66985;-28
2022/08/31 13:03:29;;;;;;;9.55;8.60;;;;;;;30.68;64.75;100720.97;5074807;28;70077;-30
2022/08/31 13:06:08;;;;;;;8.90;8.10;;;;;;;30.77;64.28;100709.84;5079134;27;67153;-28
2022/08/31 13:08:42;;;;;;;8.32;7.70;;;;;;;30.38;63.46;100644.19;5077456;27;70265;-29
2022/08/31 13:11:37;;;;;;;8.55;7.88;;;;;;;30.73;63.11;100713.00;5070098;28;66621;-29
2022/08/31 13:14:23;;;;;;;14.63;7.28;;;;;;;30.72;62.72;100705.91;5075142;27;70117;-30
2022/08/31 13:17:04;;;;;;;8.23;7.70;;;;;;;30.67;63.13;100703.06;5072503;28;67206;-31
2022/08/31 13:19:39;;;;;;;10.35;8.30;;;;;;;30.69;62.68;100709.06;5077369;27;70110;-32
2022/08/31 13:22:15;;;;;;;8.52;7.82;;;;;;;30.34;63.00;100645.69;5070730;28;66324;-29
2022/08/31 13:24:47;;;;;;;9.52;8.77;;;;;;;30.71;63.66;100712.38;5077954;27;70578;-28
2022/08/31 13:27:27;;;;;;;8.70;7.95;;;;;;;30.67;63.40;100703.06;5078513;27;67094;-30
2022/08/31 13:30:12;;;;;;;9.02;8.23;;;;;;;30.64;62.80;100716.19;5073238;28;70192;-29
2022/08/31 13:32:49;;;;;;;8.25;7.57;;;;;;;30.68;62.20;100703.88;5077436;28;66613;-31
2022/08/31 13:35:34;;;;;;;8.70;7.97;;;;;;;30.66;62.53;100712.22;5077226;28;70224;-29
2022/08/31 13:38:07;;;;;;;7.97;7.32;;;;;;;30.18;62.04;100639.78;5077861;28;67070;-31
2022/08/31 13:40:49;;;;;;;12.57;7.90;;;;;;;30.25;60.90;100661.38;5075755;27;71048;-30
2022/08/31 13:43:25;;;;;;;7.55;7.15;;;;;;;30.60;62.07;100718.53;5077697;28;66087;-28
2022/08/31 13:45:57;;;;;;;7.30;6.68;;;;;;;30.62;61.31;100729.13;5076455;27;69929;-32
2022/08/31 13:48:39;;;;;;;10.55;6.38;;;;;;;30.05;60.43;100637.16;5077595;27;66969;-29
2022/08/31 13:51:22;;;;;;;31.53;7.47;;;;;;;30.57;59.86;100727.09;5082662;27;70060;-30
2022/08/31 13:53:54;;;;;;;6.78;6.38;;;;;;;30.56;59.72;100738.97;5085428;27;66186;-26
2022/08/31 13:59:22;;;;;;;6.53;5.93;;;;;;;30.56;58.38;100717.31;5085775;27;66241;-28
2022/08/31 14:02:06;;;;;;;10.15;6.35;;;;;;;30.51;59.20;100714.47;5083818;27;69965;-32
2022/08/31 14:07:39;;;;;;;8.80;6.63;;;;;;;30.03;59.47;100625.72;5078437;27;71705;-29
2022/08/31 14:10:25;;;;;;;7.50;6.72;;;;;;;30.47;58.65;100697.00;5095021;27;66839;-28
2022/08/31 14:13:08;;;;;;;9.90;6.53;;;;;;;30.48;58.32;100693.25;5097990;27;70610;-28
2022/08/31 14:15:53;;;;;;;7.20;6.47;;;;;;;30.04;57.86;100627.41;5079250;27;66966;-29
2022/08/31 14:18:28;;;;;;;6.97;6.30;;;;;;;30.42;58.27;100688.69;5080702;27;70701;-33
2022/08/31 14:21:06;;;;;;;8.20;5.72;;;;;;;30.40;57.48;100696.25;5080905;28;66158;-28
2022/08/31 14:24:02;;;;;;;5.95;5.55;;;;;;;29.49;57.45;100554.16;5080001;28;70182;-29
2022/08/31 14:26:40;;;;;;;6.07;5.68;;;;;;;30.34;57.24;100678.16;5080090;28;66928;-29
2022/08/31 14:29:15;;;;;;;5.82;5.32;;;;;;;30.31;56.17;100692.13;5080275;27;70531;-31
2022/08/31 14:31:53;;;;;;;5.70;5.28;;;;;;;30.28;56.89;100707.78;5078704;27;66657;-29
2022/08/31 14:34:26;;;;;;;6.10;5.70;;;;;;;30.23;56.40;100704.91;5080689;27;70560;-26
2022/08/31 14:37:18;;;;;;;7.55;5.72;;;;;;;29.94;55.80;100664.94;5079812;27;66821;-28
2022/08/31 14:39:54;;;;;;;5.82;5.43;;;;;;;29.79;55.29;100649.03;5077652;28;70443;-27
2022/08/31 14:42:35;;;;;;;6.30;5.38;;;;;;;30.20;55.80;100713.44;5082194;28;66968;-30
2022/08/31 14:45:17;;;;;;;6.65;5.00;;;;;;;30.15;54.99;100718.66;5079555;28;70736;-31
2022/08/31 14:47:51;;;;;;;5.43;5.03;;;;;;;30.09;55.58;100711.44;5077775;28;66274;-32
2022/08/31 14:50:25;;;;;;;8.32;5.60;;;;;;;30.01;54.63;100698.19;5079580;27;70404;-30
2022/08/31 14:52:58;;;;;;;8.73;5.38;;;;;;;30.11;54.76;100722.84;5078861;27;67042;-29
2022/08/31 14:55:31;;;;;;;5.35;5.05;;;;;;;30.07;54.53;100716.22;5079383;28;70889;-28
2022/08/31 14:58:07;;;;;;;5.60;4.90;;;;;;;29.94;54.14;100697.38;5080198;28;67011;-28
2022/08/31 15:00:44;;;;;;;5.10;4.72;;;;;;;30.05;54.55;100737.25;5076920;27;70053;-28
2022/08/31 15:03:23;;;;;;;5.07;4.78;;;;;;;29.97;54.59;100722.09;5080543;28;66400;-33
2022/08/31 15:05:56;;;;;;;6.00;4.72;;;;;;;29.91;54.35;100703.22;5077971;27;70592;-32
2022/08/31 15:08:29;;;;;;;4.95;4.65;;;;;;;30.00;53.99;100739.78;5083090;27;66759;-30
2022/08/31 15:11:09;;;;;;;5.00;4.70;;;;;;;29.98;54.26;100726.47;5080707;27;70156;-29
2022/08/31 15:13:41;;;;;;;4.70;4.40;;;;;;;29.97;54.66;100729.38;5072055;28;67094;-29
2022/08/31 15:16:14;;;;;;;4.75;4.38;;;;;;;29.95;54.19;100721.50;5077536;28;70961;-30
2022/08/31 15:18:46;;;;;;;5.18;4.78;;;;;;;29.92;54.43;100721.09;5077604;28;66344;-29
2022/08/31 15:21:18;;;;;;;;;;;;;;;29.62;55.00;100721.66;5079938;27;70741;-30
2022/08/31 15:23:51;;;;;;;10.48;4.85;;;;;;;29.88;54.59;100722.59;5076247;28;66387;-29
2022/08/31 15:26:23;;;;;;;4.93;4.43;;;;;;;29.73;54.87;100704.78;5079487;27;70214;-30
2022/08/31 15:28:58;;;;;;;6.65;4.70;;;;;;;29.84;54.20;100720.31;5075668;28;67469;-32
2022/08/31 15:31:31;;;;;;;5.22;4.93;;;;;;;29.71;53.89;100704.16;5072805;28;70665;-30
2022/08/31 15:34:03;;;;;;;5.00;4.60;;;;;;;29.77;53.59;100714.13;5078345;28;66361;-33
2022/08/31 15:36:39;;;;;;;5.38;4.88;;;;;;;29.89;53.90;100726.94;5079738;27;70559;-30
2022/08/31 15:39:12;;;;;;;5.22;4.45;;;;;;;29.83;53.59;100744.88;5077669;28;66949;-28
2022/08/31 15:41:44;;;;;;;4.88;4.40;;;;;;;29.75;53.31;100732.41;5079708;28;70833;-31
2022/08/31 15:44:20;;;;;;;4.63;4.22;;;;;;;29.83;52.47;100756.50;5078266;28;66317;-30
2022/08/31 15:49:43;;;;;;;4.43;4.13;;;;;;;29.77;53.00;100743.03;5076258;28;67036;-29
2022/08/31 15:52:15;;;;;;;6.85;4.03;;;;;;;29.76;52.46;100741.38;5078930;28;70720;-29
2022/08/31 15:54:49;;;;;;;;;;;;;;;29.46;52.72;100743.78;5077122;27;67166;-32
2022/08/31 15:57:23;;;;;;;4.13;3.92;;;;;;;29.71;52.66;100736.63;5079768;27;69960;-33
2022/08/31 15:59:55;;;;;;;4.47;4.18;;;;;;;29.71;52.48;100741.19;5076566;28;66101;-34
2022/08/31 16:02:31;;;;;;;4.63;4.20;;;;;;;29.70;51.79;100740.38;5078660;28;70178;-29
2022/08/31 16:05:05;;;;;;;6.93;4.35;;;;;;;29.69;51.75;100736.00;5078692;27;66232;-29
2022/08/31 16:07:38;;;;;;;3.88;3.67;;;;;;;29.68;52.22;100745.16;5074975;28;70428;-28
2022/08/31 16:10:14;;;;;;;4.63;3.95;;;;;;;29.55;51.38;100723.56;5079361;27;65988;-31
2022/08/31 16:12:50;;;;;;;4.50;4.10;;;;;;;29.66;51.31;100752.66;5067013;28;70723;-32
2022/08/31 16:15:23;;;;;;;4.07;3.67;;;;;;;29.62;51.22;100748.69;5076617;28;66701;-29
2022/08/31 16:17:57;;;;;;;4.15;3.85;;;;;;;29.61;51.46;100749.72;5075782;28;70778;-31
2022/08/31 16:20:29;;;;;;;;;;;;;;;29.31;51.55;100752.97;5075373;28;66705;-29
2022/08/31 16:23:01;;;;;;;5.97;4.20;;;;;;;29.40;52.14;100724.66;5072627;27;70124;-30
2022/08/31 16:25:34;;;;;;;4.45;4.13;;;;;;;29.59;52.62;100754.53;5073605;27;66325;-29
2022/08/31 16:28:19;;;;;;;4.18;3.88;;;;;;;29.11;52.29;100672.00;5070407;28;70513;-28
2022/08/31 16:30:51;;;;;;;7.03;3.42;;;;;;;29.50;51.99;100739.59;5068570;28;66008;-30
2022/08/31 16:33:24;;;;;;;4.20;3.80;;;;;;;29.58;51.98;100750.16;5069096;27;70170;-29
2022/08/31 16:35:55;;;;;;;;;;;;;;;29.35;52.52;100743.38;5070791;28;66332;-29
2022/08/31 16:38:29;;;;;;;6.20;4.03;;;;;;;29.70;52.56;100745.78;5076937;27;70641;-32
2022/08/31 16:41:03;;;;;;;3.60;3.30;;;;;;;29.77;51.93;100740.31;5066001;28;66244;-30
2022/08/31 16:43:36;;;;;;;9.82;4.13;;;;;;;29.75;51.30;100743.22;5067232;28;70469;-30
2022/08/31 16:46:10;;;;;;;4.82;4.35;;;;;;;29.77;51.28;100741.16;5066681;28;66880;-31
2022/08/31 16:51:54;;;;;;;4.18;3.85;;;;;;;29.76;51.10;100731.41;5071136;28;67009;-28
2022/08/31 16:54:27;;;;;;;4.53;4.22;;;;;;;29.72;50.30;100722.03;5073956;28;70844;-29
2022/08/31 16:57:00;;;;;;;6.85;4.53;;;;;;;29.72;49.80;100726.63;5062696;28;66706;-30
2022/08/31 16:59:32;;;;;;;4.35;3.97;;;;;;;29.72;49.91;100727.44;5062187;28;70595;-29
2022/08/31 17:02:03;;;;;;;;;;;;;;;29.41;49.86;100730.91;5074125;28;66616;-29
2022/08/31 17:04:36;;;;;;;4.67;4.27;;;;;;;29.68;50.28;100722.72;5062638;28;70867;-28
2022/08/31 17:07:23;;;;;;;5.72;4.70;;;;;;;29.72;49.46;100724.75;5064836;28;66051;-29
2022/08/31 17:10:00;;;;;;;6.63;4.35;;;;;;;29.72;49.40;100708.53;5080688;28;70656;-28
2022/08/31 17:12:35;;;;;;;6.30;4.68;;;;;;;29.72;49.76;100711.22;5067019;28;66732;-28
2022/08/31 17:15:10;;;;;;;5.18;4.60;;;;;;;29.71;49.99;100704.16;5080202;27;70688;-28
2022/08/31 17:17:46;;;;;;;4.40;4.10;;;;;;;29.72;49.36;100696.88;5077537;28;66717;-27
2022/08/31 17:20:18;;;;;;;4.70;4.38;;;;;;;29.68;49.53;100703.78;5080007;28;70105;-29
2022/08/31 17:22:51;;;;;;;4.90;4.55;;;;;;;29.67;49.27;100700.25;5074920;27;66668;-29
2022/08/31 17:25:24;;;;;;;4.57;4.28;;;;;;;29.67;49.31;100702.09;5068276;28;70654;-28
2022/08/31 17:27:56;;;;;;;;;;;;;;;29.31;48.92;100696.25;5080935;27;66863;-29
2022/08/31 17:30:32;;;;;;;11.43;4.60;;;;;;;29.53;49.14;100685.94;5075299;28;70993;-28
2022/08/31 17:33:04;;;;;;;4.50;4.13;;;;;;;29.62;48.77;100694.63;5074068;27;65858;-29
2022/08/31 17:35:40;;;;;;;5.10;4.45;;;;;;;29.57;48.96;100691.75;5073409;28;70062;-29